createdAt,value
2022-09-20T00:01:21.019Z,9.40
2022-09-20T00:03:52.012Z,9.30
2022-09-20T00:06:22.123Z,9.40
2022-09-20T00:08:50.650Z,9.40
2022-09-20T00:11:20.653Z,9.50
2022-09-20T00:13:51.271Z,9.40
2022-09-20T00:16:22.716Z,9.50
2022-09-20T00:18:53.546Z,9.40
2022-09-20T00:21:23.473Z,9.30
2022-09-20T00:23:52.645Z,9.20
2022-09-20T00:26:21.149Z,9.30
2022-09-20T00:28:49.704Z,9.20
2022-09-20T00:31:17.866Z,9.20
2022-09-20T00:34:03.582Z,9.20
2022-09-20T00:36:33.118Z,9.20
2022-09-20T00:39:02.485Z,9.20
2022-09-20T00:41:32.373Z,9.10
2022-09-20T00:44:01.239Z,9.20
2022-09-20T00:46:36.246Z,9.00
2022-09-20T00:49:15.360Z,9.00
2022-09-20T00:51:48.225Z,9.00
2022-09-20T00:54:20.582Z,9.00
2022-09-20T00:56:49.663Z,9.00
2022-09-20T00:59:21.078Z,9.00
2022-09-20T01:01:53.424Z,9.00
2022-09-20T01:04:27.113Z,9.10
2022-09-20T01:07:00.908Z,9.10
2022-09-20T01:09:28.934Z,9.10
2022-09-20T01:11:59.234Z,9.00
2022-09-20T01:14:28.169Z,9.00
2022-09-20T01:16:59.176Z,8.90
2022-09-20T01:19:36.030Z,9.00
2022-09-20T01:22:12.589Z,9.20
2022-09-20T01:24:48.655Z,9.10
2022-09-20T01:27:25.043Z,9.10
2022-09-20T01:30:04.422Z,9.10
2022-09-20T01:32:42.733Z,8.90
2022-09-20T01:35:12.274Z,8.80
2022-09-20T01:37:51.445Z,8.90
2022-09-20T01:40:26.926Z,8.90
2022-09-20T01:43:05.064Z,8.70
2022-09-20T01:45:34.722Z,8.70
2022-09-20T01:48:14.603Z,8.70
2022-09-20T01:51:02.094Z,8.70
2022-09-20T01:54:11.965Z,8.70
2022-09-20T01:57:00.104Z,8.70
2022-09-20T01:59:57.468Z,8.70
2022-09-20T02:03:27.507Z,8.90
2022-09-20T02:06:12.858Z,8.80
2022-09-20T02:09:02.734Z,8.70
2022-09-20T02:11:45.365Z,8.70
2022-09-20T02:14:30.987Z,8.70
2022-09-20T02:17:07.518Z,8.50
2022-09-20T02:19:50.464Z,8.60
2022-09-20T02:22:40.785Z,8.60
2022-09-20T02:25:27.339Z,8.50
2022-09-20T02:28:09.993Z,8.50
2022-09-20T02:30:50.992Z,8.50
2022-09-20T02:33:36.935Z,8.60
2022-09-20T02:36:26.179Z,8.60
2022-09-20T02:39:03.934Z,8.60
2022-09-20T02:41:55.087Z,8.60
2022-09-20T02:44:34.985Z,8.60
2022-09-20T02:47:13.816Z,8.70
2022-09-20T02:49:55.029Z,8.90
2022-09-20T02:52:33.358Z,8.80
2022-09-20T02:55:07.068Z,8.80
2022-09-20T02:57:45.962Z,8.70
2022-09-20T03:00:20.061Z,8.50
2022-09-20T03:03:04.839Z,8.40
2022-09-20T03:05:43.173Z,8.40
2022-09-20T03:08:34.451Z,8.50
2022-09-20T03:11:12.728Z,8.40
2022-09-20T03:13:55.422Z,8.50
2022-09-20T03:16:32.945Z,8.30
2022-09-20T03:19:14.336Z,8.30
2022-09-20T03:21:53.768Z,8.50
2022-09-20T03:24:40.681Z,8.40
2022-09-20T03:27:18.690Z,8.40
2022-09-20T03:29:59.648Z,8.40
2022-09-20T03:32:44.548Z,8.40
2022-09-20T03:35:25.130Z,8.30
2022-09-20T03:38:12.709Z,8.40
2022-09-20T03:41:15.562Z,8.40
2022-09-20T03:44:02.446Z,8.50
2022-09-20T03:46:34.748Z,8.60
2022-09-20T03:49:36.211Z,8.60
2022-09-20T03:52:14.308Z,8.60
2022-09-20T03:55:02.497Z,8.60
2022-09-20T03:57:51.171Z,8.50
2022-09-20T04:00:25.663Z,8.50
2022-09-20T04:03:20.289Z,8.50
2022-09-20T04:06:02.492Z,8.60
2022-09-20T04:08:46.076Z,8.60
2022-09-20T04:11:26.342Z,8.70
2022-09-20T04:14:06.836Z,8.60
2022-09-20T04:16:46.184Z,8.70
2022-09-20T04:19:19.036Z,8.80
2022-09-20T04:21:54.672Z,8.90
2022-09-20T04:24:29.922Z,8.90
2022-09-20T04:27:02.187Z,8.80
2022-09-20T04:29:41.708Z,8.80
2022-09-20T04:32:19.192Z,8.80
2022-09-20T04:35:12.335Z,8.80
2022-09-20T04:37:44.508Z,8.80
2022-09-20T04:40:25.922Z,8.80
2022-09-20T04:43:31.972Z,8.80
2022-09-20T04:46:26.771Z,8.90
2022-09-20T04:49:38.338Z,9.10
2022-09-20T04:52:55.213Z,9.30
2022-09-20T04:55:52.525Z,9.20
2022-09-20T04:58:44.720Z,9.20
2022-09-20T05:01:37.330Z,9.20
2022-09-20T05:04:47.814Z,9.20
2022-09-20T05:07:50.560Z,9.20
2022-09-20T05:11:09.087Z,9.30
2022-09-20T05:13:53.057Z,9.20
2022-09-20T05:16:31.138Z,9.20
2022-09-20T05:19:18.080Z,9.10
2022-09-20T05:21:58.510Z,9.00
2022-09-20T05:24:42.650Z,9.10
2022-09-20T05:27:29.217Z,9.10
2022-09-20T05:30:05.277Z,8.90
2022-09-20T05:32:45.132Z,8.90
2022-09-20T05:35:22.233Z,9.00
2022-09-20T05:37:58.366Z,9.00
2022-09-20T05:40:34.400Z,8.90
2022-09-20T05:43:11.954Z,8.90
2022-09-20T05:46:02.365Z,8.90
2022-09-20T05:48:41.339Z,8.90
2022-09-20T05:51:17.648Z,9.00
2022-09-20T05:54:22.850Z,9.20
2022-09-20T05:56:59.947Z,9.10
2022-09-20T05:59:38.552Z,9.20
2022-09-20T06:02:22.055Z,9.30
2022-09-20T06:05:01.816Z,9.40
2022-09-20T06:07:45.742Z,9.40
2022-09-20T06:10:39.796Z,9.50
2022-09-20T06:13:24.363Z,9.40
2022-09-20T06:15:59.742Z,9.50
2022-09-20T06:18:32.220Z,9.70
2022-09-20T06:21:14.552Z,9.70
2022-09-20T06:23:42.825Z,9.60
2022-09-20T06:26:17.382Z,9.70
2022-09-20T06:28:50.309Z,9.80
2022-09-20T06:31:18.819Z,9.80
2022-09-20T06:33:52.230Z,9.80
2022-09-20T06:36:44.150Z,9.80
2022-09-20T06:39:38.658Z,10.00
2022-09-20T06:42:10.252Z,10.10
2022-09-20T06:44:41.227Z,10.20
2022-09-20T06:47:11.435Z,10.30
2022-09-20T06:49:41.267Z,10.40
2022-09-20T06:52:15.456Z,10.40
2022-09-20T06:54:45.700Z,10.50
2022-09-20T06:57:17.284Z,10.50
2022-09-20T06:59:45.723Z,10.60
2022-09-20T07:02:13.843Z,10.60
2022-09-20T07:04:42.340Z,10.60
2022-09-20T07:07:19.025Z,10.80
2022-09-20T07:09:47.536Z,10.70
2022-09-20T07:12:15.636Z,10.80
2022-09-20T07:14:44.365Z,10.70
2022-09-20T07:17:13.234Z,10.70
2022-09-20T07:19:41.319Z,10.60
2022-09-20T07:22:09.483Z,10.60
2022-09-20T07:24:40.587Z,10.70
2022-09-20T07:27:09.272Z,10.70
2022-09-20T07:29:37.344Z,10.70
2022-09-20T07:32:05.579Z,10.80
2022-09-20T07:34:33.713Z,10.80
2022-09-20T07:37:02.212Z,10.80
2022-09-20T07:39:30.676Z,10.90
2022-09-20T07:42:01.180Z,11.10
2022-09-20T07:44:29.289Z,11.50
2022-09-20T07:46:59.238Z,11.90
2022-09-20T07:49:29.948Z,12.20
2022-09-20T07:51:58.638Z,12.40
2022-09-20T07:54:27.239Z,12.60
2022-09-20T07:56:55.833Z,12.70
2022-09-20T07:59:25.959Z,12.80
2022-09-20T08:01:54.103Z,12.90
2022-09-20T08:04:22.183Z,13.40
2022-09-20T08:06:50.242Z,13.60
2022-09-20T08:09:19.180Z,13.70
2022-09-20T08:11:48.630Z,13.80
2022-09-20T08:14:18.752Z,14.00
2022-09-20T08:16:50.247Z,14.20
2022-09-20T08:19:20.959Z,14.40
2022-09-20T08:21:51.590Z,14.60
2022-09-20T08:24:19.826Z,14.90
2022-09-20T08:26:49.424Z,15.10
2022-09-20T08:29:17.576Z,15.30
2022-09-20T08:31:47.187Z,15.50
2022-09-20T08:34:17.046Z,15.70
2022-09-20T08:36:47.389Z,15.80
2022-09-20T08:42:14.278Z,15.60
2022-09-20T08:44:57.786Z,15.70
2022-09-20T08:47:29.014Z,15.80
2022-09-20T08:50:00.670Z,15.90
2022-09-20T08:52:39.123Z,15.90
2022-09-20T08:55:16.679Z,16.10
2022-09-20T08:57:46.641Z,16.10
2022-09-20T09:00:19.335Z,16.20
2022-09-20T09:02:47.953Z,16.00
2022-09-20T09:05:35.782Z,15.70
2022-09-20T09:08:07.549Z,15.50
2022-09-20T09:10:45.631Z,15.20
2022-09-20T09:13:21.765Z,15.40
2022-09-20T09:15:55.280Z,15.30
2022-09-20T09:18:31.590Z,15.40
2022-09-20T09:21:04.923Z,15.70
2022-09-20T09:23:41.243Z,15.60
2022-09-20T09:26:19.046Z,15.60
2022-09-20T09:28:48.412Z,15.40
2022-09-20T09:31:25.876Z,15.20
2022-09-20T09:33:54.207Z,15.10
2022-09-20T09:36:25.761Z,14.90
2022-09-20T09:39:16.209Z,14.70
2022-09-20T09:41:46.441Z,14.50
2022-09-20T09:44:23.777Z,14.50
2022-09-20T09:46:53.611Z,14.30
2022-09-20T09:49:23.499Z,14.20
2022-09-20T09:52:08.214Z,14.30
2022-09-20T09:54:39.231Z,14.50
2022-09-20T09:57:22.222Z,14.50
2022-09-20T10:00:11.624Z,14.80
2022-09-20T10:03:17.020Z,15.20
2022-09-20T10:05:53.434Z,15.70
2022-09-20T10:08:30.158Z,15.90
2022-09-20T10:11:08.510Z,16.00
2022-09-20T10:13:46.592Z,15.70
2022-09-20T10:16:24.104Z,15.40
2022-09-20T10:19:00.958Z,15.60
2022-09-20T10:21:43.958Z,16.00
2022-09-20T10:24:30.979Z,16.40
2022-09-20T10:27:13.212Z,16.70
2022-09-20T10:29:57.241Z,16.60
2022-09-20T10:32:43.288Z,16.50
2022-09-20T10:35:23.462Z,16.10
2022-09-20T10:38:21.692Z,15.90
2022-09-20T10:41:21.536Z,15.70
2022-09-20T10:44:10.063Z,15.90
2022-09-20T10:46:53.072Z,16.40
2022-09-20T10:49:31.426Z,17.00
2022-09-20T10:52:20.752Z,17.10
2022-09-20T10:55:04.684Z,17.30
2022-09-20T10:57:55.758Z,17.10
2022-09-20T11:00:26.824Z,16.90
2022-09-20T11:03:09.538Z,16.70
2022-09-20T11:05:47.702Z,16.40
2022-09-20T11:08:22.801Z,16.10
2022-09-20T11:10:54.545Z,16.10
2022-09-20T11:13:28.315Z,15.90
2022-09-20T11:16:03.989Z,15.70
2022-09-20T11:18:40.537Z,15.70
2022-09-20T11:21:13.999Z,15.70
2022-09-20T11:23:51.058Z,15.40
2022-09-20T11:26:28.186Z,15.50
2022-09-20T11:28:58.805Z,15.70
2022-09-20T11:31:31.486Z,15.80
2022-09-20T11:34:09.386Z,16.00
2022-09-20T11:36:44.214Z,16.00
2022-09-20T11:39:16.679Z,16.20
2022-09-20T11:41:45.441Z,16.10
2022-09-20T11:44:17.676Z,16.20
2022-09-20T11:46:52.959Z,16.10
2022-09-20T11:49:28.550Z,16.10
2022-09-20T11:52:30.294Z,16.00
2022-09-20T11:55:14.841Z,16.00
2022-09-20T11:57:43.160Z,15.90
2022-09-20T12:00:12.732Z,16.10
2022-09-20T12:02:49.267Z,16.10
2022-09-20T12:05:33.646Z,16.30
2022-09-20T12:08:04.022Z,16.40
2022-09-20T12:10:35.476Z,16.50
2022-09-20T12:13:05.915Z,16.70
2022-09-20T12:15:36.101Z,16.90
2022-09-20T12:18:28.166Z,16.80
2022-09-20T12:21:17.455Z,16.90
2022-09-20T12:24:02.944Z,16.50
2022-09-20T12:26:41.346Z,16.50
2022-09-20T12:29:53.068Z,16.50
2022-09-20T12:32:50.657Z,16.40
2022-09-20T12:36:01.082Z,16.50
2022-09-20T12:39:04.532Z,16.40
2022-09-20T12:41:51.032Z,16.50
2022-09-20T12:44:33.371Z,16.60
2022-09-20T12:47:04.465Z,16.50
2022-09-20T12:50:00.430Z,16.50
2022-09-20T12:52:55.526Z,16.60
2022-09-20T12:55:40.636Z,16.80
2022-09-20T12:58:23.108Z,17.00
2022-09-20T13:01:14.524Z,17.10
2022-09-20T13:03:45.335Z,17.10
2022-09-20T13:06:25.956Z,17.20
2022-09-20T13:09:06.107Z,17.30
2022-09-20T13:11:41.050Z,17.30
2022-09-20T13:14:14.584Z,17.10
2022-09-20T13:16:52.216Z,17.10
2022-09-20T13:19:23.583Z,17.10
2022-09-20T13:21:58.164Z,17.20
2022-09-20T13:24:28.442Z,17.10
2022-09-20T13:27:03.461Z,17.20
2022-09-20T13:29:35.278Z,17.30
2022-09-20T13:32:18.592Z,17.30
2022-09-20T13:34:46.806Z,17.20
2022-09-20T13:37:21.145Z,17.20
2022-09-20T13:39:54.883Z,17.10
2022-09-20T13:42:24.594Z,16.60
2022-09-20T13:44:53.134Z,16.60
2022-09-20T13:47:26.596Z,16.60
2022-09-20T13:50:00.705Z,16.50
2022-09-20T13:52:31.568Z,16.50
2022-09-20T13:54:59.744Z,16.40
2022-09-20T13:57:31.356Z,16.30
2022-09-20T14:00:01.640Z,16.30
2022-09-20T14:02:33.210Z,16.30
2022-09-20T14:05:03.603Z,16.30
2022-09-20T14:07:33.164Z,16.20
2022-09-20T14:10:01.565Z,16.20
2022-09-20T14:12:31.208Z,16.10
2022-09-20T14:15:00.215Z,16.00
2022-09-20T14:17:33.072Z,15.90
2022-09-20T14:20:01.368Z,15.90
2022-09-20T14:22:30.424Z,15.80
2022-09-20T14:25:01.458Z,15.60
2022-09-20T14:27:31.509Z,15.60
2022-09-20T14:29:59.757Z,15.60
2022-09-20T14:32:45.894Z,15.40
2022-09-20T14:35:17.935Z,15.40
2022-09-20T14:37:48.930Z,15.30
2022-09-20T14:40:23.474Z,15.30
2022-09-20T14:42:58.967Z,15.40
2022-09-20T14:45:33.721Z,15.30
2022-09-20T14:48:09.624Z,15.30
2022-09-20T14:50:41.311Z,15.30
2022-09-20T14:53:26.671Z,15.30
2022-09-20T14:56:13.340Z,15.20
2022-09-20T14:59:22.863Z,15.30
2022-09-20T15:02:02.028Z,15.30
2022-09-20T15:04:31.690Z,15.30
2022-09-20T15:07:04.028Z,15.40
2022-09-20T15:09:32.154Z,15.30
2022-09-20T15:12:01.776Z,15.50
2022-09-20T15:14:36.500Z,15.60
2022-09-20T15:17:06.193Z,15.80
2022-09-20T15:19:34.503Z,15.80
2022-09-20T15:22:02.699Z,15.90
2022-09-20T15:24:30.782Z,16.00
2022-09-20T15:26:58.851Z,16.00
2022-09-20T15:29:27.224Z,15.90
2022-09-20T15:31:56.722Z,15.90
2022-09-20T15:34:25.040Z,15.70
2022-09-20T15:36:54.165Z,15.90
2022-09-20T15:39:23.745Z,15.90
2022-09-20T15:41:53.331Z,15.80
2022-09-20T15:44:21.496Z,15.70
2022-09-20T15:46:51.529Z,15.90
2022-09-20T15:49:21.768Z,15.80
2022-09-20T15:51:50.509Z,15.90
2022-09-20T15:54:18.618Z,15.80
2022-09-20T15:56:46.698Z,15.90
2022-09-20T15:59:16.039Z,15.80
2022-09-20T16:01:48.187Z,15.80
2022-09-20T16:04:18.642Z,15.60
2022-09-20T16:06:50.636Z,15.60
2022-09-20T16:09:19.418Z,15.50
2022-09-20T16:11:48.256Z,15.50
2022-09-20T16:14:16.383Z,15.40
2022-09-20T16:16:44.472Z,15.50
2022-09-20T16:19:17.976Z,15.40
2022-09-20T16:21:52.491Z,15.30
2022-09-20T16:24:26.143Z,15.30
2022-09-20T16:26:54.679Z,15.40
2022-09-20T16:29:23.503Z,15.30
2022-09-20T16:31:52.541Z,15.20
2022-09-20T16:34:22.348Z,15.30
2022-09-20T16:36:53.232Z,15.20
2022-09-20T16:39:27.612Z,15.20
2022-09-20T16:41:57.841Z,15.10
2022-09-20T16:44:26.072Z,15.00
2022-09-20T16:46:54.218Z,14.80
2022-09-20T16:49:24.621Z,14.80
2022-09-20T16:51:54.381Z,14.80
2022-09-20T16:54:22.963Z,14.70
2022-09-20T16:56:52.690Z,14.60
2022-09-20T16:59:22.177Z,14.50
2022-09-20T17:01:51.322Z,14.40
2022-09-20T17:04:21.131Z,14.50
2022-09-20T17:06:50.460Z,14.50
2022-09-20T17:09:20.974Z,14.30
2022-09-20T17:11:51.409Z,14.20
2022-09-20T17:14:21.916Z,14.00
2022-09-20T17:16:50.591Z,13.90
2022-09-20T17:19:20.091Z,13.90
2022-09-20T17:21:50.800Z,14.00
2022-09-20T17:24:21.600Z,14.00
2022-09-20T17:26:50.987Z,13.80
2022-09-20T17:29:20.537Z,13.80
2022-09-20T17:31:54.930Z,13.60
2022-09-20T17:34:25.305Z,13.50
2022-09-20T17:36:55.006Z,13.60
2022-09-20T17:39:25.156Z,13.40
2022-09-20T17:41:53.226Z,13.50
2022-09-20T17:44:21.429Z,13.50
2022-09-20T17:46:51.343Z,13.50
2022-09-20T17:49:20.850Z,13.50
2022-09-20T17:51:50.969Z,13.40
2022-09-20T17:54:19.289Z,13.50
2022-09-20T17:56:50.929Z,13.50
2022-09-20T17:59:20.506Z,13.50
2022-09-20T18:01:50.524Z,13.40
2022-09-20T18:04:20.750Z,13.40
2022-09-20T18:06:50.651Z,13.30
2022-09-20T18:09:20.723Z,13.40
2022-09-20T18:11:51.730Z,13.40
2022-09-20T18:14:21.241Z,13.30
2022-09-20T18:16:49.507Z,13.30
2022-09-20T18:19:17.984Z,13.20
2022-09-20T18:21:46.098Z,13.20
2022-09-20T18:24:14.200Z,13.20
2022-09-20T18:26:42.531Z,13.10
2022-09-20T18:29:13.194Z,13.00
2022-09-20T18:31:45.356Z,13.00
2022-09-20T18:34:15.584Z,13.00
2022-09-20T18:36:43.683Z,13.00
2022-09-20T18:39:13.095Z,13.00
2022-09-20T18:41:44.032Z,13.00
2022-09-20T18:44:14.682Z,12.90
2022-09-20T18:46:43.373Z,12.80
2022-09-20T18:49:15.079Z,12.80
2022-09-20T18:51:43.986Z,12.80
2022-09-20T18:54:13.119Z,12.70
2022-09-20T18:56:42.727Z,12.70
2022-09-20T18:59:16.281Z,12.60
2022-09-20T19:02:13.688Z,12.60
2022-09-20T19:05:05.695Z,12.60
2022-09-20T19:07:45.747Z,12.50
2022-09-20T19:10:20.603Z,12.50
2022-09-20T19:12:56.098Z,12.40
2022-09-20T19:15:40.134Z,12.30
2022-09-20T19:18:24.950Z,12.20
2022-09-20T19:21:00.545Z,12.10
2022-09-20T19:23:46.244Z,12.10
2022-09-20T19:26:22.355Z,12.00
2022-09-20T19:28:51.126Z,11.90
2022-09-20T19:31:26.556Z,12.00
2022-09-20T19:33:56.913Z,12.10
2022-09-20T19:36:26.559Z,12.20
2022-09-20T19:39:05.424Z,12.20
2022-09-20T19:41:47.751Z,12.30
2022-09-20T19:44:27.471Z,12.10
2022-09-20T19:47:12.963Z,11.90
2022-09-20T19:49:51.447Z,11.80
2022-09-20T19:52:20.044Z,11.80
2022-09-20T19:54:49.033Z,11.90
2022-09-20T19:57:21.727Z,11.90
2022-09-20T19:59:52.424Z,11.90
2022-09-20T20:02:22.811Z,12.00
2022-09-20T20:04:51.578Z,11.90
2022-09-20T20:07:30.681Z,12.00
2022-09-20T20:10:07.104Z,12.00
2022-09-20T20:12:42.266Z,12.00
2022-09-20T20:15:20.247Z,12.00
2022-09-20T20:18:00.795Z,11.90
2022-09-20T20:20:35.191Z,11.90
2022-09-20T20:23:24.181Z,11.80
2022-09-20T20:26:02.937Z,11.70
2022-09-20T20:28:31.509Z,11.70
2022-09-20T20:31:02.253Z,11.80
2022-09-20T20:33:32.931Z,11.80
2022-09-20T20:36:02.516Z,11.70
2022-09-20T20:38:37.267Z,11.70
2022-09-20T20:41:07.804Z,11.70
2022-09-20T20:43:38.166Z,11.70
2022-09-20T20:46:08.359Z,11.60
2022-09-20T20:48:38.185Z,11.50
2022-09-20T20:51:09.559Z,11.40
2022-09-20T20:53:39.507Z,11.30
2022-09-20T20:56:09.589Z,11.30
2022-09-20T20:58:40.788Z,11.20
2022-09-20T21:01:11.953Z,11.20
2022-09-20T21:03:43.458Z,11.20
2022-09-20T21:06:11.999Z,11.20
2022-09-20T21:08:44.730Z,11.30
2022-09-20T21:11:16.560Z,11.30
2022-09-20T21:13:44.689Z,11.20
2022-09-20T21:16:13.875Z,11.10
2022-09-20T21:18:45.558Z,11.20
2022-09-20T21:21:16.637Z,11.10
2022-09-20T21:23:46.383Z,11.00
2022-09-20T21:26:15.926Z,11.00
2022-09-20T21:28:45.724Z,10.90
2022-09-20T21:31:14.529Z,10.90
2022-09-20T21:33:44.986Z,10.80
2022-09-20T21:36:14.614Z,10.80
2022-09-20T21:38:44.708Z,10.80
2022-09-20T21:41:14.791Z,10.70
2022-09-20T21:43:44.360Z,10.80
2022-09-20T21:46:13.278Z,10.70
2022-09-20T21:48:43.171Z,10.60
2022-09-20T21:51:13.027Z,10.50
2022-09-20T21:53:41.594Z,10.40
2022-09-20T21:56:12.967Z,10.60
2022-09-20T21:58:41.750Z,10.70
2022-09-20T22:01:12.438Z,10.50
2022-09-20T22:03:43.754Z,10.50
2022-09-20T22:06:13.834Z,10.30
2022-09-20T22:08:43.873Z,10.40
2022-09-20T22:11:14.966Z,10.40
2022-09-20T22:13:45.789Z,10.40
2022-09-20T22:16:15.748Z,10.30
2022-09-20T22:18:46.189Z,10.10
2022-09-20T22:21:16.464Z,10.10
2022-09-20T22:23:45.137Z,10.10
2022-09-20T22:26:14.898Z,10.00
2022-09-20T22:28:43.355Z,10.00
2022-09-20T22:31:13.365Z,10.00
2022-09-20T22:33:44.537Z,10.00
2022-09-20T22:36:15.302Z,10.00
2022-09-20T22:38:43.564Z,10.00
2022-09-20T22:41:12.592Z,10.10
2022-09-20T22:43:41.744Z,10.10
2022-09-20T22:46:12.055Z,9.90
2022-09-20T22:48:41.746Z,9.80
2022-09-20T22:51:13.064Z,9.80
2022-09-20T22:53:41.557Z,9.90
2022-09-20T22:56:11.478Z,10.00
2022-09-20T22:58:40.972Z,9.90
2022-09-20T23:01:12.233Z,9.90
2022-09-20T23:03:41.631Z,9.80
2022-09-20T23:06:16.576Z,9.80
2022-09-20T23:08:44.806Z,9.60
2022-09-20T23:11:12.913Z,9.60
2022-09-20T23:13:41.066Z,9.50
2022-09-20T23:16:14.009Z,9.50
2022-09-20T23:18:42.127Z,9.50
2022-09-20T23:21:10.356Z,9.60
2022-09-20T23:23:43.151Z,9.70
2022-09-20T23:26:12.961Z,9.80
2022-09-20T23:28:42.593Z,9.70
2022-09-20T23:31:13.115Z,9.70
2022-09-20T23:33:44.786Z,9.50
2022-09-20T23:36:14.771Z,9.30
2022-09-20T23:38:44.536Z,9.20
2022-09-20T23:41:14.198Z,9.20
2022-09-20T23:43:43.035Z,9.20
2022-09-20T23:46:12.893Z,9.10
2022-09-20T23:48:42.422Z,9.20
2022-09-20T23:51:11.604Z,9.30
2022-09-20T23:53:40.041Z,9.20
2022-09-20T23:56:10.808Z,9.30
2022-09-20T23:58:39.826Z,9.20
